AMAT2: Canadian River Nr Amarillo, TX

                                SHEF ID:       AMAT2     Canadian Rv nr Amarillo, TX
STATION TYPE:
Regulating: Stage = 13.00, Flow = 11996

PRECIP STAGE RIV-FLOW WTR-TEMP CONDUCT BAT-LOAD
in ft cfs F umho/cm volt
Ccp-Rev Ccp-Rev Ccp-Rev Ccp-Rev Ccp-Rev Ccp-Rev
(America/Chicago)
07/20 00:00 ---- 2.20 247 79.48 1 12.63
07/20 01:00 ---- 2.26 267 79.43 1 12.63
07/20 02:00 ---- 2.31 284 79.34 1 12.61
07/20 03:00 ---- 2.36 302 79.20 1 12.60
07/20 04:00 ---- 2.39 313 78.94 1 12.59
07/20 05:00 ---- 2.42 325 78.55 1 12.57
07/20 06:00 ---- 2.45 336 78.04 1 12.57
07/20 07:00 ---- 2.49 352 77.47 1 12.58
07/20 08:00 ---- 2.55 377 76.98 1 12.85
07/20 09:00 ---- 2.58 390 76.68 1 13.27
07/20 10:00 ---- 2.64 415 76.68 1 13.65
07/20 11:00 ---- 2.69 432 77.02 1 13.60
07/20 12:00 ---- 2.75 453 78.15 1 13.55
07/20 13:00 ---- 2.81 475 79.54 1 13.50
07/20 14:00 ---- 2.86 493 81.09 1 13.45
07/20 15:00 ---- 2.90 508 82.63 1 13.42
07/20 16:00 ---- 2.93 519 83.89 1 13.37
07/20 17:00 ---- 2.96 531 84.83 1 13.36
07/20 18:00 ---- 3.02 554 85.51 1 13.16
07/20 19:00 ---- 3.08 578 85.84 1 12.97
07/20 20:00 ---- 3.12 594 85.73 1 12.77
07/20 21:00 ---- 3.14 603 85.06 1 12.63
07/20 22:00 ---- 3.19 623 84.27 1 12.63
07/20 23:00 ---- 3.22 636 83.41 1 12.63
Data processed at Mon 21Jul2025 04:15 GMT

Parsing this webpage?

Checkout our new Data API! CWMSDataAPI (CDA)

Timeseries IDs (TSIDs)

TSIDs used from left to right in the data table
AMAR.Precip-Inc.Total.1Hour.1Hour.Ccp-Rev
AMAR.Stage.Inst.1Hour.0.Ccp-Rev
AMAR.Flow.Inst.1Hour.0.Ccp-Rev
AMAR.Temp-Water.Inst.1Hour.0.Ccp-Rev
AMAR.Cond-Water.Inst.1Hour.0.Ccp-Rev
AMAR.Volt-Battery Load.Inst.1Hour.0.Ccp-Rev

                            

All information presented herein is the property of the government of the United States of America and may be revised or deleted at any time without prior notice. Dissemination of this information without the expressed written consent of the Public Affairs Office, Tulsa District U.S. Army Corps of Engineers is strictly prohibited. These data are gathered electronically and, as presented, have NOT undergone any form of quality control. These data are NOT guaranteed to be valid or correct.